createdAt,value
2022-11-05T00:01:53.315Z,9.71
2022-11-05T00:04:39.033Z,9.74
2022-11-05T00:07:47.296Z,9.74
2022-11-05T00:10:19.724Z,9.71
2022-11-05T00:13:05.566Z,9.74
2022-11-05T00:15:51.649Z,9.75
2022-11-05T00:18:19.094Z,9.75
2022-11-05T00:20:46.328Z,9.71
2022-11-05T00:23:31.950Z,9.75
2022-11-05T00:26:07.769Z,9.71
2022-11-05T00:28:35.784Z,9.75
2022-11-05T00:31:13.558Z,9.67
2022-11-05T00:33:42.787Z,9.68
2022-11-05T00:36:13.254Z,9.70
2022-11-05T00:38:40.556Z,9.71
2022-11-05T00:41:08.181Z,9.72
2022-11-05T00:43:54.017Z,9.73
2022-11-05T00:46:21.218Z,9.66
2022-11-05T00:49:08.770Z,9.73
2022-11-05T00:51:36.109Z,9.66
2022-11-05T00:54:03.365Z,9.74
2022-11-05T00:56:31.823Z,9.76
2022-11-05T00:58:59.028Z,9.70
2022-11-05T01:01:26.314Z,9.73
2022-11-05T01:03:54.030Z,9.68
2022-11-05T01:06:21.265Z,9.55
2022-11-05T01:08:49.791Z,9.52
2022-11-05T01:11:34.506Z,9.50
2022-11-05T01:14:07.774Z,9.45
2022-11-05T01:16:35.577Z,9.38
2022-11-05T01:19:03.438Z,9.37
2022-11-05T01:21:30.657Z,9.33
2022-11-05T01:23:57.907Z,9.28
2022-11-05T01:26:25.184Z,9.28
2022-11-05T01:28:53.819Z,9.27
2022-11-05T01:31:21.405Z,9.23
2022-11-05T01:33:48.672Z,9.14
2022-11-05T01:36:15.938Z,9.09
2022-11-05T01:38:43.168Z,9.07
2022-11-05T01:41:10.438Z,9.06
2022-11-05T01:43:56.433Z,9.08
2022-11-05T01:46:31.505Z,8.99
2022-11-05T01:49:07.279Z,8.94
2022-11-05T01:51:34.523Z,8.92
2022-11-05T01:54:05.092Z,8.91
2022-11-05T01:56:38.421Z,8.90
2022-11-05T01:59:15.313Z,8.88
2022-11-05T02:01:43.055Z,8.84
2022-11-05T02:04:16.702Z,8.83
2022-11-05T02:06:46.223Z,8.82
2022-11-05T02:09:18.468Z,8.76
2022-11-05T02:11:46.091Z,8.77
2022-11-05T02:14:13.361Z,8.79
2022-11-05T02:16:46.619Z,8.74
2022-11-05T02:20:00.799Z,8.62
2022-11-05T02:23:01.831Z,8.62
2022-11-05T02:25:59.913Z,8.71
2022-11-05T02:28:54.655Z,8.69
2022-11-05T02:31:40.398Z,8.73
2022-11-05T02:34:16.055Z,8.79
2022-11-05T02:36:50.757Z,8.77
2022-11-05T02:39:23.996Z,8.81
2022-11-05T02:42:15.917Z,8.87
2022-11-05T02:44:55.956Z,8.83
2022-11-05T02:47:34.058Z,8.83
2022-11-05T02:50:24.150Z,8.92
2022-11-05T02:53:17.289Z,8.96
2022-11-05T02:55:54.088Z,8.97
2022-11-05T02:58:21.636Z,9.00
2022-11-05T03:00:56.446Z,9.04
2022-11-05T03:03:37.362Z,8.98
2022-11-05T03:06:32.338Z,8.91
2022-11-05T03:09:13.928Z,8.83
2022-11-05T03:12:09.340Z,8.78
2022-11-05T03:14:42.451Z,8.73
2022-11-05T03:17:40.715Z,8.75
2022-11-05T03:20:15.136Z,8.69
2022-11-05T03:23:10.910Z,8.65
2022-11-05T03:25:46.922Z,8.62
2022-11-05T03:28:17.270Z,8.60
2022-11-05T03:30:45.933Z,8.55
2022-11-05T03:33:18.192Z,8.52
2022-11-05T03:35:48.454Z,8.53
2022-11-05T03:38:29.441Z,8.48
2022-11-05T03:40:59.101Z,8.46
2022-11-05T03:43:30.183Z,8.42
2022-11-05T03:46:01.078Z,8.40
2022-11-05T03:48:29.444Z,8.32
2022-11-05T03:51:28.589Z,8.31
2022-11-05T03:54:02.999Z,8.27
2022-11-05T03:56:53.589Z,8.28
2022-11-05T03:59:21.116Z,8.26
2022-11-05T04:01:48.736Z,8.29
2022-11-05T04:04:16.250Z,8.28
2022-11-05T04:07:01.996Z,8.27
2022-11-05T04:09:47.780Z,8.15
2022-11-05T04:12:33.425Z,8.09
2022-11-05T04:15:02.890Z,7.99
2022-11-05T04:17:30.151Z,7.95
2022-11-05T04:20:16.242Z,7.88
2022-11-05T04:23:02.168Z,7.85
2022-11-05T04:25:29.400Z,7.86
2022-11-05T04:28:00.535Z,7.89
2022-11-05T04:30:27.881Z,7.90
2022-11-05T04:33:11.154Z,7.88
2022-11-05T04:35:45.449Z,7.79
2022-11-05T04:38:19.903Z,7.72
2022-11-05T04:40:48.170Z,7.65
2022-11-05T04:43:17.522Z,7.65
2022-11-05T04:45:45.547Z,7.60
2022-11-05T04:48:13.212Z,7.60
2022-11-05T04:50:40.495Z,7.57
2022-11-05T04:53:08.133Z,7.55
2022-11-05T04:55:35.469Z,7.56
2022-11-05T04:58:02.654Z,7.54
2022-11-05T05:00:29.928Z,7.54
2022-11-05T05:02:57.517Z,7.53
2022-11-05T05:05:24.777Z,7.45
2022-11-05T05:07:52.010Z,7.41
2022-11-05T05:10:19.287Z,7.40
2022-11-05T05:12:46.551Z,7.36
2022-11-05T05:15:13.830Z,7.38
2022-11-05T05:17:40.963Z,7.37
2022-11-05T05:20:26.858Z,7.36
2022-11-05T05:22:54.990Z,7.30
2022-11-05T05:25:22.886Z,7.33
2022-11-05T05:27:50.118Z,7.33
2022-11-05T05:30:17.668Z,7.31
2022-11-05T05:32:44.939Z,7.29
2022-11-05T05:35:12.360Z,7.27
2022-11-05T05:37:39.546Z,7.23
2022-11-05T05:40:07.216Z,7.24
2022-11-05T05:42:38.752Z,7.19
2022-11-05T05:45:09.725Z,7.23
2022-11-05T05:47:37.043Z,7.21
2022-11-05T05:50:04.559Z,7.16
2022-11-05T05:52:31.740Z,7.19
2022-11-05T05:55:01.031Z,7.19
2022-11-05T05:57:28.166Z,7.18
2022-11-05T05:59:55.387Z,7.16
2022-11-05T06:02:23.000Z,7.15
2022-11-05T06:04:50.477Z,7.17
2022-11-05T06:07:17.626Z,7.15
2022-11-05T06:09:44.808Z,7.17
2022-11-05T06:12:12.564Z,7.16
2022-11-05T06:14:39.879Z,7.18
2022-11-05T06:17:10.229Z,7.18
2022-11-05T06:19:37.401Z,7.20
2022-11-05T06:22:04.688Z,7.20
2022-11-05T06:24:31.942Z,7.17
2022-11-05T06:26:59.653Z,7.16
2022-11-05T06:29:27.100Z,7.12
2022-11-05T06:31:54.326Z,7.12
2022-11-05T06:34:21.587Z,7.11
2022-11-05T06:36:48.782Z,7.11
2022-11-05T06:39:15.988Z,7.16
2022-11-05T06:42:11.760Z,7.15
2022-11-05T06:44:31.990Z,7.15
2022-11-05T06:47:00.277Z,7.12
2022-11-05T06:49:27.462Z,7.09
2022-11-05T06:51:54.739Z,7.13
2022-11-05T06:54:21.932Z,7.20
2022-11-05T06:56:49.109Z,7.26
2022-11-05T06:59:16.314Z,7.20
2022-11-05T07:01:43.642Z,7.24
2022-11-05T07:04:15.567Z,7.30
2022-11-05T07:06:42.809Z,7.28
2022-11-05T07:09:10.011Z,7.21
2022-11-05T07:11:37.216Z,7.27
2022-11-05T07:14:04.501Z,7.30
2022-11-05T07:16:31.733Z,7.26
2022-11-05T07:18:59.114Z,7.30
2022-11-05T07:21:26.382Z,7.31
2022-11-05T07:23:53.673Z,7.33
2022-11-05T07:26:20.866Z,7.29
2022-11-05T07:28:48.105Z,7.35
2022-11-05T07:31:15.330Z,7.35
2022-11-05T07:33:42.699Z,7.39
2022-11-05T07:36:10.132Z,7.40
2022-11-05T07:38:37.605Z,7.42
2022-11-05T07:41:04.927Z,7.43
2022-11-05T07:43:32.137Z,7.39
2022-11-05T07:45:59.486Z,7.40
2022-11-05T07:48:26.710Z,7.38
2022-11-05T07:50:54.615Z,7.40
2022-11-05T07:53:21.844Z,7.42
2022-11-05T07:55:49.094Z,7.56
2022-11-05T07:58:16.307Z,7.60
2022-11-05T08:00:43.706Z,7.69
2022-11-05T08:03:16.867Z,7.80
2022-11-05T08:05:46.558Z,7.88
2022-11-05T08:08:14.900Z,7.98
2022-11-05T08:10:42.758Z,7.98
2022-11-05T08:13:10.666Z,8.11
2022-11-05T08:15:38.796Z,8.29
2022-11-05T08:18:21.700Z,8.46
2022-11-05T08:20:49.182Z,8.57
2022-11-05T08:23:16.620Z,8.61
2022-11-05T08:25:43.874Z,8.72
2022-11-05T08:28:12.979Z,8.75
2022-11-05T08:30:40.355Z,8.81
2022-11-05T08:33:10.754Z,8.83
2022-11-05T08:35:38.877Z,8.81
2022-11-05T08:38:07.829Z,8.77
2022-11-05T08:40:35.987Z,8.76
2022-11-05T08:43:04.721Z,8.79
2022-11-05T08:45:32.429Z,8.85
2022-11-05T08:48:15.024Z,8.88
2022-11-05T08:50:42.621Z,8.94
2022-11-05T08:53:10.956Z,9.00
2022-11-05T08:55:38.770Z,9.05
2022-11-05T08:58:09.120Z,9.12
2022-11-05T09:00:37.311Z,9.22
2022-11-05T09:03:06.432Z,9.31
2022-11-05T09:05:40.662Z,9.47
2022-11-05T09:08:11.092Z,9.55
2022-11-05T09:10:38.774Z,9.59
2022-11-05T09:13:06.550Z,9.74
2022-11-05T09:15:35.514Z,9.75
2022-11-05T09:18:05.551Z,9.84
2022-11-05T09:20:40.923Z,9.94
2022-11-05T09:23:09.800Z,10.03
2022-11-05T09:25:38.671Z,10.19
2022-11-05T09:28:26.170Z,10.32
2022-11-05T09:30:53.853Z,10.31
2022-11-05T09:33:23.202Z,10.32
2022-11-05T09:35:50.515Z,10.42
2022-11-05T09:38:17.933Z,10.60
2022-11-05T09:41:32.987Z,10.72
2022-11-05T09:44:06.928Z,11.00
2022-11-05T09:47:00.163Z,11.08
2022-11-05T09:49:35.159Z,11.07
2022-11-05T09:52:03.417Z,11.23
2022-11-05T09:54:33.565Z,11.21
2022-11-05T09:57:03.319Z,11.29
2022-11-05T09:59:33.133Z,11.22
2022-11-05T10:02:23.243Z,11.18
2022-11-05T10:04:56.459Z,11.28
2022-11-05T10:07:29.658Z,11.26
2022-11-05T10:10:03.767Z,11.31
2022-11-05T10:12:37.104Z,11.41
2022-11-05T10:15:16.418Z,11.47
2022-11-05T10:17:57.550Z,11.57
2022-11-05T10:20:38.577Z,11.54
2022-11-05T10:23:12.382Z,11.74
2022-11-05T10:25:42.691Z,11.95
2022-11-05T10:28:15.055Z,11.84
2022-11-05T10:30:42.827Z,11.86
2022-11-05T10:33:12.796Z,12.01
2022-11-05T10:35:50.544Z,12.09
2022-11-05T10:38:17.892Z,12.05
2022-11-05T10:40:53.157Z,12.05
2022-11-05T10:43:30.449Z,12.00
2022-11-05T10:46:23.869Z,12.06
2022-11-05T10:49:03.993Z,12.01
2022-11-05T10:51:33.143Z,12.00
2022-11-05T10:54:17.595Z,11.87
2022-11-05T10:56:45.179Z,11.90
2022-11-05T10:59:24.203Z,12.05
2022-11-05T11:02:04.429Z,12.09
2022-11-05T11:04:37.683Z,11.93
2022-11-05T11:07:05.674Z,11.94
2022-11-05T11:09:35.669Z,12.06
2022-11-05T11:12:17.316Z,12.17
2022-11-05T11:15:05.360Z,12.47
2022-11-05T11:17:34.068Z,12.34
2022-11-05T11:20:23.696Z,12.37
2022-11-05T11:23:01.635Z,12.60
2022-11-05T11:26:00.744Z,12.80
2022-11-05T11:28:40.357Z,12.67
2022-11-05T11:31:11.867Z,12.67
2022-11-05T11:33:40.832Z,12.63
2022-11-05T11:36:10.509Z,12.61
2022-11-05T11:38:38.189Z,12.63
2022-11-05T11:41:26.011Z,12.57
2022-11-05T11:44:13.186Z,12.57
2022-11-05T11:46:40.823Z,12.51
2022-11-05T11:49:50.563Z,12.44
2022-11-05T11:52:34.325Z,12.53
2022-11-05T11:55:21.049Z,12.51
2022-11-05T11:58:06.421Z,12.53
2022-11-05T12:00:39.209Z,12.44
2022-11-05T12:03:09.825Z,12.42
2022-11-05T12:05:41.969Z,12.37
2022-11-05T12:08:30.540Z,12.23
2022-11-05T12:11:16.574Z,12.16
2022-11-05T12:14:26.851Z,12.07
2022-11-05T12:17:10.895Z,12.02
2022-11-05T12:20:22.571Z,12.04
2022-11-05T12:23:00.167Z,11.95
2022-11-05T12:25:32.702Z,12.02
2022-11-05T12:28:12.064Z,11.98
2022-11-05T12:31:04.947Z,11.96
2022-11-05T12:33:56.481Z,11.84
2022-11-05T12:36:38.993Z,11.84
2022-11-05T12:39:20.228Z,11.87
2022-11-05T12:41:54.706Z,11.87
2022-11-05T12:44:37.297Z,11.83
2022-11-05T12:47:25.379Z,11.88
2022-11-05T12:50:18.658Z,11.89
2022-11-05T12:53:04.695Z,12.04
2022-11-05T12:55:45.507Z,12.00
2022-11-05T12:58:26.220Z,11.97
2022-11-05T13:01:02.947Z,11.97
2022-11-05T13:03:54.070Z,12.08
2022-11-05T13:06:48.542Z,12.16
2022-11-05T13:09:31.867Z,12.16
2022-11-05T13:12:03.711Z,12.20
2022-11-05T13:14:47.489Z,12.17
2022-11-05T13:17:18.879Z,12.26
2022-11-05T13:19:52.640Z,12.12
2022-11-05T13:22:39.423Z,12.02
2022-11-05T13:25:35.213Z,11.97
2022-11-05T13:28:05.249Z,11.86
2022-11-05T13:30:38.249Z,11.74
2022-11-05T13:33:13.014Z,11.73
2022-11-05T13:36:26.171Z,11.66
2022-11-05T13:39:16.833Z,11.71
2022-11-05T13:42:08.989Z,11.57
2022-11-05T13:45:07.805Z,11.53
2022-11-05T13:47:50.437Z,11.50
2022-11-05T13:50:55.527Z,11.52
2022-11-05T13:53:49.379Z,11.64
2022-11-05T13:56:39.364Z,11.74
2022-11-05T13:59:45.611Z,11.89
2022-11-05T14:02:25.566Z,11.78
2022-11-05T14:05:00.702Z,11.68
2022-11-05T14:07:44.141Z,11.63
2022-11-05T14:10:26.299Z,11.51
2022-11-05T14:12:54.928Z,11.44
2022-11-05T14:15:26.197Z,11.37
2022-11-05T14:18:36.974Z,11.26
2022-11-05T14:21:05.911Z,11.18
2022-11-05T14:23:41.233Z,11.16
2022-11-05T14:26:20.659Z,11.18
2022-11-05T14:28:50.128Z,11.16
2022-11-05T14:31:40.976Z,11.07
2022-11-05T14:34:11.657Z,10.93
2022-11-05T14:36:40.383Z,10.87
2022-11-05T14:39:18.876Z,10.82
2022-11-05T14:41:57.217Z,10.82
2022-11-05T14:44:25.466Z,10.82
2022-11-05T14:46:55.486Z,10.82
2022-11-05T14:49:25.790Z,10.85
2022-11-05T14:51:55.938Z,10.78
2022-11-05T14:54:35.784Z,10.74
2022-11-05T14:57:03.636Z,10.67
2022-11-05T14:59:35.091Z,10.60
2022-11-05T15:02:15.691Z,10.45
2022-11-05T15:04:47.548Z,10.41
2022-11-05T15:07:34.925Z,10.38
2022-11-05T15:10:14.580Z,10.35
2022-11-05T15:13:24.714Z,10.23
2022-11-05T15:15:55.793Z,10.15
2022-11-05T15:18:33.979Z,10.10
2022-11-05T15:21:03.044Z,10.03
2022-11-05T15:23:36.557Z,10.00
2022-11-05T15:26:07.441Z,9.92
2022-11-05T15:29:03.115Z,9.94
2022-11-05T15:31:31.899Z,9.97
2022-11-05T15:34:25.809Z,10.01
2022-11-05T15:37:09.943Z,9.97
2022-11-05T15:39:45.939Z,9.90
2022-11-05T15:42:15.250Z,9.85
2022-11-05T15:44:43.416Z,9.86
2022-11-05T15:47:16.876Z,9.81
2022-11-05T15:49:50.012Z,9.75
2022-11-05T15:52:20.200Z,9.64
2022-11-05T15:55:05.859Z,9.57
2022-11-05T15:57:33.348Z,9.50
2022-11-05T16:00:07.743Z,9.42
2022-11-05T16:02:36.478Z,9.37
2022-11-05T16:05:09.336Z,9.26
2022-11-05T16:07:36.694Z,9.19
2022-11-05T16:10:07.385Z,9.14
2022-11-05T16:12:38.855Z,9.10
2022-11-05T16:15:09.079Z,9.12
2022-11-05T16:17:57.648Z,9.15
2022-11-05T16:20:36.150Z,9.10
2022-11-05T16:23:06.241Z,9.07
2022-11-05T16:25:43.547Z,9.18
2022-11-05T16:28:25.237Z,9.32
2022-11-05T16:31:03.035Z,9.40
2022-11-05T16:33:46.429Z,9.35
2022-11-05T16:36:13.896Z,9.25
2022-11-05T16:38:41.448Z,9.12
2022-11-05T16:41:14.369Z,8.99
2022-11-05T16:43:49.555Z,8.90
2022-11-05T16:46:16.962Z,8.78
2022-11-05T16:48:44.258Z,8.72
2022-11-05T16:51:12.181Z,8.66
2022-11-05T16:53:39.469Z,8.60
2022-11-05T16:56:08.768Z,8.58
2022-11-05T16:58:35.962Z,8.49
2022-11-05T17:01:05.661Z,8.42
2022-11-05T17:03:32.895Z,8.39
2022-11-05T17:06:04.150Z,8.32
2022-11-05T17:08:31.693Z,8.27
2022-11-05T17:10:58.957Z,8.22
2022-11-05T17:13:26.202Z,8.17
2022-11-05T17:15:53.726Z,8.14
2022-11-05T17:18:23.664Z,8.10
2022-11-05T17:20:53.382Z,8.03
2022-11-05T17:23:22.821Z,7.97
2022-11-05T17:25:58.213Z,7.92
2022-11-05T17:28:36.615Z,7.88
2022-11-05T17:31:08.029Z,7.84
2022-11-05T17:33:35.257Z,7.79
2022-11-05T17:36:09.658Z,7.77
2022-11-05T17:38:37.074Z,7.70
2022-11-05T17:41:19.084Z,7.68
2022-11-05T17:43:46.841Z,7.59
2022-11-05T17:46:16.905Z,7.58
2022-11-05T17:48:44.853Z,7.53
2022-11-05T17:51:15.157Z,7.49
2022-11-05T17:53:42.943Z,7.45
2022-11-05T17:56:11.320Z,7.42
2022-11-05T17:58:39.180Z,7.39
2022-11-05T18:01:08.369Z,7.34
2022-11-05T18:03:35.809Z,7.30
2022-11-05T18:06:07.645Z,7.22
2022-11-05T18:08:34.983Z,7.19
2022-11-05T18:11:03.931Z,7.17
2022-11-05T18:13:31.074Z,7.14
2022-11-05T18:15:58.309Z,7.07
2022-11-05T18:18:25.491Z,7.05
2022-11-05T18:20:52.708Z,7.04
2022-11-05T18:23:19.916Z,6.98
2022-11-05T18:25:47.096Z,6.93
2022-11-05T18:28:14.680Z,6.90
2022-11-05T18:30:42.191Z,6.84
2022-11-05T18:33:09.955Z,6.83
2022-11-05T18:35:44.373Z,6.81
2022-11-05T18:38:11.789Z,6.79
2022-11-05T18:40:39.225Z,6.74
2022-11-05T18:43:06.391Z,6.69
2022-11-05T18:45:33.693Z,6.64
2022-11-05T18:48:02.080Z,6.65
2022-11-05T18:50:29.996Z,6.63
2022-11-05T18:52:57.510Z,6.62
2022-11-05T18:55:25.300Z,6.56
2022-11-05T18:57:52.520Z,6.57
2022-11-05T19:00:20.214Z,6.56
2022-11-05T19:02:47.509Z,6.57
2022-11-05T19:05:28.616Z,6.55
2022-11-05T19:07:56.841Z,6.53
2022-11-05T19:10:24.093Z,6.51
2022-11-05T19:12:51.321Z,6.43
2022-11-05T19:15:18.679Z,6.40
2022-11-05T19:17:46.654Z,6.32
2022-11-05T19:20:13.931Z,6.28
2022-11-05T19:22:41.126Z,6.25
2022-11-05T19:25:08.590Z,6.23
2022-11-05T19:27:37.457Z,6.12
2022-11-05T19:30:05.585Z,6.00
2022-11-05T19:32:32.734Z,5.95
2022-11-05T19:34:59.958Z,5.88
2022-11-05T19:37:27.322Z,5.84
2022-11-05T19:39:54.491Z,5.81
2022-11-05T19:42:21.985Z,5.72
2022-11-05T19:44:49.157Z,5.61
2022-11-05T19:47:16.401Z,5.52
2022-11-05T19:49:43.640Z,5.43
2022-11-05T19:52:10.937Z,5.46
2022-11-05T19:54:40.497Z,5.46
2022-11-05T19:57:07.717Z,5.40
2022-11-05T19:59:35.185Z,5.36
2022-11-05T20:02:02.513Z,5.30
2022-11-05T20:04:29.824Z,5.28
2022-11-05T20:06:57.175Z,5.18
2022-11-05T20:09:25.845Z,5.12
2022-11-05T20:11:54.791Z,5.08
2022-11-05T20:14:23.028Z,5.03
2022-11-05T20:16:50.869Z,5.00
2022-11-05T20:19:20.184Z,4.98
2022-11-05T20:21:47.678Z,4.89
2022-11-05T20:24:22.465Z,4.84
2022-11-05T20:26:56.114Z,4.84
2022-11-05T20:29:26.021Z,4.85
2022-11-05T20:31:57.027Z,4.77
2022-11-05T20:34:24.885Z,4.64
2022-11-05T20:36:52.086Z,4.56
2022-11-05T20:39:21.153Z,4.46
2022-11-05T20:41:48.326Z,4.39
2022-11-05T20:44:15.604Z,4.37
2022-11-05T20:46:42.780Z,4.42
2022-11-05T20:49:09.960Z,4.43
2022-11-05T20:51:37.302Z,4.39
2022-11-05T20:54:05.349Z,4.38
2022-11-05T20:56:35.308Z,4.41
2022-11-05T20:59:03.323Z,4.42
2022-11-05T21:01:32.315Z,4.37
2022-11-05T21:03:59.858Z,4.28
2022-11-05T21:06:27.089Z,4.29
2022-11-05T21:08:54.578Z,4.33
2022-11-05T21:11:22.153Z,4.31
2022-11-05T21:13:49.647Z,4.34
2022-11-05T21:16:18.844Z,4.33
2022-11-05T21:18:47.271Z,4.28
2022-11-05T21:21:17.433Z,4.29
2022-11-05T21:23:44.887Z,4.34
2022-11-05T21:26:14.314Z,4.28
2022-11-05T21:28:42.525Z,4.33
2022-11-05T21:31:10.111Z,4.34
2022-11-05T21:33:37.600Z,4.32
2022-11-05T21:36:09.951Z,4.36
2022-11-05T21:38:40.683Z,4.37
2022-11-05T21:41:08.609Z,4.37
2022-11-05T21:43:37.155Z,4.33
2022-11-05T21:46:05.098Z,4.42
2022-11-05T21:48:32.636Z,4.42
2022-11-05T21:51:20.459Z,4.42
2022-11-05T21:54:06.551Z,4.37
2022-11-05T21:56:52.810Z,4.43
2022-11-05T21:59:40.763Z,4.41
2022-11-05T22:02:09.138Z,4.40
2022-11-05T22:04:41.234Z,4.43
2022-11-05T22:07:09.895Z,4.53
2022-11-05T22:09:37.475Z,4.48
2022-11-05T22:12:05.437Z,4.48
2022-11-05T22:14:32.937Z,4.47
2022-11-05T22:17:00.303Z,4.38
2022-11-05T22:19:27.801Z,4.37
2022-11-05T22:21:54.934Z,4.47
2022-11-05T22:24:22.285Z,4.40
2022-11-05T22:26:49.528Z,4.30
2022-11-05T22:29:17.102Z,4.34
2022-11-05T22:31:44.286Z,4.27
2022-11-05T22:34:12.125Z,4.28
2022-11-05T22:36:39.805Z,4.25
2022-11-05T22:39:07.360Z,4.15
2022-11-05T22:41:34.857Z,4.15
2022-11-05T22:44:03.471Z,4.18
2022-11-05T22:46:31.313Z,4.15
2022-11-05T22:48:59.021Z,4.18
2022-11-05T22:51:28.642Z,4.23
2022-11-05T22:53:56.096Z,4.28
2022-11-05T22:56:25.161Z,4.19
2022-11-05T22:58:52.776Z,4.26
2022-11-05T23:01:22.067Z,4.31
2022-11-05T23:03:49.805Z,4.31
2022-11-05T23:06:38.266Z,4.28
2022-11-05T23:09:31.552Z,4.35
2022-11-05T23:11:59.088Z,4.35
2022-11-05T23:14:26.765Z,4.43
2022-11-05T23:17:12.660Z,4.33
2022-11-05T23:19:59.252Z,4.27
2022-11-05T23:22:47.637Z,4.24
2022-11-05T23:25:22.055Z,4.26
2022-11-05T23:27:50.720Z,4.27
2022-11-05T23:30:20.617Z,4.35
2022-11-05T23:32:48.916Z,4.37
2022-11-05T23:35:17.800Z,4.40
2022-11-05T23:38:03.501Z,4.39
2022-11-05T23:40:51.528Z,4.34
2022-11-05T23:43:37.293Z,4.21
2022-11-05T23:46:23.211Z,4.22
2022-11-05T23:48:52.476Z,4.19
2022-11-05T23:51:19.646Z,4.09
2022-11-05T23:53:46.996Z,4.05
2022-11-05T23:56:15.202Z,4.05
2022-11-05T23:58:42.985Z,4.00
